createdAt,value
2023-08-28T00:00:42.043Z,62.90
2023-08-28T00:03:30.805Z,63.26
2023-08-28T00:05:59.125Z,63.05
2023-08-28T00:08:27.565Z,63.07
2023-08-28T00:10:55.884Z,63.45
2023-08-28T00:13:24.186Z,64.10
2023-08-28T00:15:53.561Z,64.39
2023-08-28T00:18:21.894Z,64.51
2023-08-28T00:20:50.208Z,65.01
2023-08-28T00:23:18.966Z,65.02
2023-08-28T00:25:47.361Z,64.93
2023-08-28T00:28:15.769Z,65.16
2023-08-28T00:30:44.200Z,65.45
2023-08-28T00:33:12.614Z,65.46
2023-08-28T00:35:41.635Z,65.34
2023-08-28T00:38:13.688Z,65.18
2023-08-28T00:40:42.084Z,65.02
2023-08-28T00:43:10.482Z,64.84
2023-08-28T00:45:43.401Z,64.70
2023-08-28T00:48:15.680Z,64.88
2023-08-28T00:50:45.559Z,65.12
2023-08-28T00:53:14.676Z,64.86
2023-08-28T00:55:44.487Z,64.61
2023-08-28T00:58:14.183Z,64.96
2023-08-28T01:00:42.758Z,65.01
2023-08-28T01:03:11.253Z,65.45
2023-08-28T01:06:15.123Z,65.24
2023-08-28T01:09:00.639Z,65.39
2023-08-28T01:11:57.513Z,64.97
2023-08-28T01:14:30.592Z,65.83
2023-08-28T01:17:08.299Z,66.00
2023-08-28T01:19:43.641Z,66.27
2023-08-28T01:22:40.366Z,66.21
2023-08-28T01:25:13.476Z,66.43
2023-08-28T01:27:43.069Z,66.63
2023-08-28T01:30:16.191Z,66.51
2023-08-28T01:32:46.485Z,66.82
2023-08-28T01:35:14.719Z,66.58
2023-08-28T01:37:59.144Z,66.34
2023-08-28T01:41:06.642Z,66.06
2023-08-28T01:44:16.542Z,65.86
2023-08-28T01:46:47.416Z,66.60
2023-08-28T01:49:15.912Z,66.61
2023-08-28T01:51:44.729Z,66.35
2023-08-28T01:54:13.084Z,65.92
2023-08-28T01:56:41.386Z,66.52
2023-08-28T01:59:09.754Z,66.91
2023-08-28T02:01:38.964Z,67.04
2023-08-28T02:04:07.573Z,66.99
2023-08-28T02:06:37.012Z,66.37
2023-08-28T02:09:50.914Z,66.83
2023-08-28T02:12:19.159Z,66.78
2023-08-28T02:14:47.889Z,66.85
2023-08-28T02:17:16.578Z,67.33
2023-08-28T02:19:44.982Z,67.70
2023-08-28T02:22:13.378Z,67.25
2023-08-28T02:24:41.701Z,67.30
2023-08-28T02:27:10.084Z,67.80
2023-08-28T02:29:38.381Z,68.02
2023-08-28T02:32:06.921Z,68.49
2023-08-28T02:34:35.682Z,69.07
2023-08-28T02:37:05.205Z,68.67
2023-08-28T02:39:33.585Z,68.70
2023-08-28T02:42:01.974Z,68.20
2023-08-28T02:44:30.246Z,68.61
2023-08-28T02:46:58.521Z,68.78
2023-08-28T02:49:26.849Z,68.93
2023-08-28T02:51:55.137Z,69.50
2023-08-28T02:54:23.504Z,69.37
2023-08-28T02:56:51.820Z,69.22
2023-08-28T02:59:20.140Z,69.62
2023-08-28T03:01:48.522Z,70.17
2023-08-28T03:04:16.897Z,71.17
2023-08-28T03:06:45.114Z,71.63
2023-08-28T03:09:16.143Z,71.69
2023-08-28T03:12:32.341Z,72.41
2023-08-28T03:15:00.765Z,72.21
2023-08-28T03:17:29.227Z,71.83
2023-08-28T03:19:58.576Z,71.56
2023-08-28T03:22:27.095Z,71.27
2023-08-28T03:24:55.520Z,71.64
2023-08-28T03:27:23.874Z,72.33
2023-08-28T03:29:52.652Z,72.30
2023-08-28T03:32:21.035Z,72.37
2023-08-28T03:34:51.057Z,72.65
2023-08-28T03:37:19.388Z,72.80
2023-08-28T03:39:47.764Z,73.07
2023-08-28T03:42:16.178Z,73.10
2023-08-28T03:44:44.572Z,72.21
2023-08-28T03:47:12.909Z,71.71
2023-08-28T03:49:41.442Z,72.46
2023-08-28T03:52:09.759Z,73.43
2023-08-28T03:54:38.097Z,74.06
2023-08-28T03:57:07.487Z,73.88
2023-08-28T03:59:36.450Z,73.00
2023-08-28T04:02:04.865Z,72.71
2023-08-28T04:04:33.142Z,73.22
2023-08-28T04:07:04.496Z,73.75
2023-08-28T04:09:32.872Z,73.23
2023-08-28T04:12:01.605Z,73.11
2023-08-28T04:14:31.629Z,73.55
2023-08-28T04:17:00.044Z,73.30
2023-08-28T04:19:28.364Z,72.98
2023-08-28T04:21:56.677Z,73.27
2023-08-28T04:24:26.052Z,73.06
2023-08-28T04:26:54.448Z,73.19
2023-08-28T04:29:23.253Z,72.70
2023-08-28T04:31:51.601Z,72.87
2023-08-28T04:34:20.173Z,72.43
2023-08-28T04:36:48.888Z,72.61
2023-08-28T04:39:17.294Z,72.38
2023-08-28T04:41:45.663Z,71.66
2023-08-28T04:44:13.981Z,72.07
2023-08-28T04:46:42.618Z,72.12
2023-08-28T04:49:11.434Z,71.18
2023-08-28T04:51:39.757Z,70.84
2023-08-28T04:54:08.162Z,69.94
2023-08-28T04:56:36.639Z,69.14
2023-08-28T04:59:05.197Z,68.92
2023-08-28T05:01:34.202Z,68.43
2023-08-28T05:04:02.795Z,67.80
2023-08-28T05:06:31.207Z,67.19
2023-08-28T05:08:59.561Z,66.95
2023-08-28T05:11:27.902Z,66.61
2023-08-28T05:13:56.338Z,65.96
2023-08-28T05:16:31.545Z,65.77
2023-08-28T05:18:59.962Z,65.40
2023-08-28T05:21:28.221Z,64.81
2023-08-28T05:23:56.501Z,64.51
2023-08-28T05:26:24.819Z,64.02
2023-08-28T05:28:54.822Z,63.58
2023-08-28T05:31:23.324Z,62.86
2023-08-28T05:33:52.066Z,62.33
2023-08-28T05:36:21.747Z,61.80
2023-08-28T05:38:50.081Z,61.29
2023-08-28T05:41:18.416Z,60.63
2023-08-28T05:43:48.625Z,59.90
2023-08-28T05:46:17.320Z,59.41
2023-08-28T05:48:45.807Z,58.87
2023-08-28T05:51:14.117Z,59.02
2023-08-28T05:53:44.553Z,59.05
2023-08-28T05:56:13.102Z,58.78
2023-08-28T05:58:42.020Z,58.26
2023-08-28T06:01:10.591Z,57.86
2023-08-28T06:03:40.484Z,56.91
2023-08-28T06:06:13.628Z,56.98
2023-08-28T06:08:41.983Z,55.88
2023-08-28T06:11:10.501Z,54.67
2023-08-28T06:13:38.899Z,53.74
2023-08-28T06:16:07.446Z,52.85
2023-08-28T06:18:36.269Z,53.74
2023-08-28T06:21:05.194Z,53.42
2023-08-28T06:23:33.621Z,53.76
2023-08-28T06:26:02.110Z,53.59
2023-08-28T06:28:30.880Z,53.70
2023-08-28T06:31:00.696Z,53.52
2023-08-28T06:33:29.084Z,53.58
2023-08-28T06:35:57.504Z,54.02
2023-08-28T06:38:25.900Z,53.15
2023-08-28T06:40:55.047Z,53.09
2023-08-28T06:43:23.365Z,53.42
2023-08-28T06:45:51.663Z,53.27
2023-08-28T06:48:20.012Z,53.15
2023-08-28T06:50:48.361Z,52.62
2023-08-28T06:53:16.711Z,52.12
2023-08-28T06:55:45.074Z,51.82
2023-08-28T06:58:13.942Z,51.53
2023-08-28T07:00:42.392Z,50.97
2023-08-28T07:03:10.857Z,50.13
2023-08-28T07:05:40.570Z,49.79
2023-08-28T07:08:09.013Z,49.34
2023-08-28T07:10:37.501Z,47.89
2023-08-28T07:13:06.144Z,47.39
2023-08-28T07:15:54.958Z,47.12
2023-08-28T07:18:37.335Z,47.11
2023-08-28T07:21:06.600Z,47.75
2023-08-28T07:23:35.151Z,46.93
2023-08-28T07:26:04.369Z,46.55
2023-08-28T07:28:32.835Z,46.61
2023-08-28T07:31:03.658Z,46.81
2023-08-28T07:33:32.000Z,46.17
2023-08-28T07:36:00.430Z,45.36
2023-08-28T07:38:28.903Z,46.21
2023-08-28T07:40:57.302Z,45.61
2023-08-28T07:43:25.999Z,44.74
2023-08-28T07:45:54.446Z,44.76
2023-08-28T07:48:22.988Z,45.06
2023-08-28T07:50:51.545Z,45.48
2023-08-28T07:53:19.881Z,45.14
2023-08-28T07:55:48.290Z,44.55
2023-08-28T07:58:19.371Z,43.67
2023-08-28T08:00:50.158Z,43.97
2023-08-28T08:03:23.894Z,44.07
2023-08-28T08:05:53.999Z,43.57
2023-08-28T08:08:22.884Z,43.26
2023-08-28T08:10:51.472Z,42.84
2023-08-28T08:13:19.847Z,41.99
2023-08-28T08:15:48.309Z,42.23
2023-08-28T08:18:16.793Z,41.44
2023-08-28T08:20:45.345Z,41.02
2023-08-28T08:23:13.712Z,40.94
2023-08-28T08:25:42.149Z,39.67
2023-08-28T08:28:10.509Z,39.34
2023-08-28T08:30:38.840Z,39.59
2023-08-28T08:33:07.464Z,39.27
2023-08-28T08:35:36.302Z,39.22
2023-08-28T08:38:04.819Z,39.66
2023-08-28T08:40:35.836Z,38.75
2023-08-28T08:43:04.640Z,37.76
2023-08-28T08:45:38.587Z,37.69
2023-08-28T08:48:11.243Z,36.29
2023-08-28T08:50:40.500Z,36.24
2023-08-28T08:53:52.584Z,36.53
2023-08-28T08:56:23.303Z,36.39
2023-08-28T08:58:51.893Z,35.81
2023-08-28T09:01:21.175Z,35.59
2023-08-28T09:03:50.194Z,35.84
2023-08-28T09:06:19.361Z,35.75
2023-08-28T09:08:48.096Z,34.25
2023-08-28T09:11:16.475Z,34.33
2023-08-28T09:13:45.344Z,33.66
2023-08-28T09:16:14.275Z,34.04
2023-08-28T09:18:43.456Z,33.76
2023-08-28T09:21:41.201Z,33.74
2023-08-28T09:24:11.136Z,32.55
2023-08-28T09:26:40.169Z,31.91
2023-08-28T09:29:10.170Z,30.23
2023-08-28T09:31:44.224Z,28.63
2023-08-28T09:34:12.992Z,28.37
2023-08-28T09:36:45.178Z,28.46
2023-08-28T09:39:17.758Z,29.48
2023-08-28T09:41:50.721Z,29.81
2023-08-28T09:44:22.374Z,30.21
2023-08-28T09:46:51.197Z,30.41
2023-08-28T09:49:19.718Z,30.34
2023-08-28T09:51:50.501Z,30.44
2023-08-28T09:54:19.334Z,29.69
2023-08-28T09:56:47.647Z,29.87
2023-08-28T09:59:16.996Z,29.95
2023-08-28T10:01:47.957Z,29.51
2023-08-28T10:04:20.498Z,29.42
2023-08-28T10:06:54.524Z,28.89
2023-08-28T10:09:24.110Z,28.01
2023-08-28T10:11:53.396Z,28.15
2023-08-28T10:14:25.042Z,28.86
2023-08-28T10:17:04.154Z,28.44
2023-08-28T10:19:38.372Z,28.13
2023-08-28T10:22:09.568Z,28.61
2023-08-28T10:24:41.575Z,28.48
2023-08-28T10:27:11.919Z,28.96
2023-08-28T10:29:41.846Z,28.70
2023-08-28T10:32:11.754Z,28.82
2023-08-28T10:34:43.844Z,28.36
2023-08-28T10:37:27.896Z,28.33
2023-08-28T10:40:03.204Z,28.48
2023-08-28T10:42:32.832Z,28.43
2023-08-28T10:45:03.076Z,28.60
2023-08-28T10:47:32.175Z,28.65
2023-08-28T10:50:00.726Z,28.80
2023-08-28T10:52:29.751Z,29.26
2023-08-28T10:55:01.050Z,29.14
2023-08-28T10:57:31.257Z,29.10
2023-08-28T11:00:16.411Z,28.13
2023-08-28T11:03:06.902Z,27.33
2023-08-28T11:05:37.867Z,26.87
2023-08-28T11:08:12.599Z,27.52
2023-08-28T11:10:50.762Z,27.96
2023-08-28T11:13:26.704Z,28.56
2023-08-28T11:16:05.530Z,28.25
2023-08-28T11:18:39.211Z,28.00
2023-08-28T11:21:08.421Z,27.68
2023-08-28T11:23:41.201Z,27.68
2023-08-28T11:26:30.770Z,27.41
2023-08-28T11:28:59.085Z,27.13
2023-08-28T11:31:34.987Z,27.50
2023-08-28T11:34:05.302Z,27.57
2023-08-28T11:36:40.694Z,26.76
2023-08-28T11:39:21.485Z,27.09
2023-08-28T11:41:50.709Z,27.24
2023-08-28T11:44:19.205Z,27.34
2023-08-28T11:46:47.498Z,27.23
2023-08-28T11:49:15.859Z,27.24
2023-08-28T11:51:44.249Z,26.79
2023-08-28T11:54:12.619Z,26.74
2023-08-28T11:56:43.077Z,26.73
2023-08-28T11:59:11.452Z,26.87
2023-08-28T12:01:39.913Z,26.22
2023-08-28T12:04:09.128Z,25.63
2023-08-28T12:06:41.086Z,25.87
2023-08-28T12:09:14.083Z,26.13
2023-08-28T12:11:43.312Z,26.67
2023-08-28T12:14:16.590Z,26.20
2023-08-28T12:16:44.994Z,26.21
2023-08-28T12:19:21.270Z,25.95
2023-08-28T12:21:49.654Z,25.98
2023-08-28T12:24:18.369Z,25.77
2023-08-28T12:26:46.754Z,24.54
2023-08-28T12:29:15.121Z,24.48
2023-08-28T12:31:43.427Z,25.03
2023-08-28T12:34:11.944Z,25.05
2023-08-28T12:36:47.001Z,25.03
2023-08-28T12:39:22.964Z,24.69
2023-08-28T12:41:56.368Z,24.68
2023-08-28T12:44:26.069Z,24.56
2023-08-28T12:46:54.842Z,24.29
2023-08-28T12:49:23.760Z,24.23
2023-08-28T12:51:52.211Z,24.17
2023-08-28T12:54:20.919Z,24.61
2023-08-28T12:56:50.468Z,24.93
2023-08-28T12:59:20.088Z,24.86
2023-08-28T13:01:49.695Z,24.70
2023-08-28T13:04:28.288Z,24.83
2023-08-28T13:06:56.658Z,25.15
2023-08-28T13:09:25.123Z,24.82
2023-08-28T13:11:53.870Z,24.86
2023-08-28T13:14:22.156Z,24.31
2023-08-28T13:16:50.541Z,24.10
2023-08-28T13:19:19.754Z,24.50
2023-08-28T13:21:49.243Z,24.23
2023-08-28T13:24:18.938Z,24.44
2023-08-28T13:26:51.953Z,24.55
2023-08-28T13:29:20.276Z,25.40
2023-08-28T13:31:48.657Z,24.98
2023-08-28T13:34:17.042Z,24.82
2023-08-28T13:36:45.347Z,24.69
2023-08-28T13:39:13.659Z,24.47
2023-08-28T13:41:41.935Z,24.48
2023-08-28T13:44:10.844Z,24.54
2023-08-28T13:46:40.552Z,24.78
2023-08-28T13:49:08.833Z,25.09
2023-08-28T13:51:37.181Z,24.77
2023-08-28T13:54:05.567Z,25.04
2023-08-28T13:56:33.865Z,25.25
2023-08-28T13:59:05.944Z,25.18
2023-08-28T14:01:35.152Z,25.27
2023-08-28T14:04:03.757Z,24.97
2023-08-28T14:06:32.204Z,25.22
2023-08-28T14:09:00.575Z,25.18
2023-08-28T14:11:28.904Z,25.27
2023-08-28T14:13:57.261Z,25.56
2023-08-28T14:16:25.770Z,25.20
2023-08-28T14:18:54.117Z,25.48
2023-08-28T14:21:22.626Z,25.68
2023-08-28T14:23:50.943Z,25.57
2023-08-28T14:26:19.325Z,25.59
2023-08-28T14:28:47.739Z,25.25
2023-08-28T14:31:16.194Z,24.63
2023-08-28T14:33:44.741Z,24.89
2023-08-28T14:36:14.206Z,25.00
2023-08-28T14:38:42.614Z,24.95
2023-08-28T14:41:10.945Z,25.13
2023-08-28T14:43:39.299Z,24.69
2023-08-28T14:46:07.665Z,24.67
2023-08-28T14:48:35.941Z,24.82
2023-08-28T14:51:04.350Z,25.05
2023-08-28T14:53:32.703Z,25.42
2023-08-28T14:56:01.047Z,25.36
2023-08-28T14:58:29.358Z,25.11
2023-08-28T15:00:57.815Z,25.42
2023-08-28T15:03:26.545Z,25.61
2023-08-28T15:05:54.937Z,25.58
2023-08-28T15:08:23.326Z,25.40
2023-08-28T15:10:51.753Z,25.59
2023-08-28T15:13:20.139Z,25.72
2023-08-28T15:15:50.517Z,26.18
2023-08-28T15:18:19.500Z,26.07
2023-08-28T15:20:48.773Z,25.84
2023-08-28T15:23:17.174Z,25.98
2023-08-28T15:25:45.702Z,25.98
2023-08-28T15:28:14.022Z,26.18
2023-08-28T15:30:42.370Z,25.99
2023-08-28T15:33:13.140Z,26.12
2023-08-28T15:35:41.650Z,26.33
2023-08-28T15:38:10.152Z,26.52
2023-08-28T15:40:38.492Z,26.76
2023-08-28T15:43:07.356Z,26.74
2023-08-28T15:45:36.077Z,26.74
2023-08-28T15:48:06.659Z,26.98
2023-08-28T15:50:35.461Z,27.24
2023-08-28T15:53:04.401Z,27.40
2023-08-28T15:55:33.044Z,27.56
2023-08-28T15:58:01.354Z,27.81
2023-08-28T16:00:29.663Z,27.98
2023-08-28T16:02:58.133Z,28.35
2023-08-28T16:05:28.898Z,28.67
2023-08-28T16:07:57.262Z,28.75
2023-08-28T16:10:25.671Z,28.94
2023-08-28T16:12:54.077Z,28.89
2023-08-28T16:15:22.482Z,29.18
2023-08-28T16:17:50.972Z,29.34
2023-08-28T16:20:19.410Z,29.24
2023-08-28T16:22:47.757Z,29.46
2023-08-28T16:25:16.311Z,29.41
2023-08-28T16:27:45.379Z,29.59
2023-08-28T16:30:14.183Z,29.73
2023-08-28T16:32:42.714Z,29.90
2023-08-28T16:35:11.662Z,30.12
2023-08-28T16:37:40.058Z,30.57
2023-08-28T16:40:08.927Z,31.02
2023-08-28T16:42:37.231Z,31.54
2023-08-28T16:45:06.632Z,32.41
2023-08-28T16:47:34.999Z,32.87
2023-08-28T16:50:04.489Z,33.19
2023-08-28T16:52:32.908Z,33.50
2023-08-28T16:55:01.182Z,34.24
2023-08-28T16:57:29.612Z,34.62
2023-08-28T16:59:58.076Z,35.00
2023-08-28T17:02:26.413Z,35.21
2023-08-28T17:04:54.833Z,35.55
2023-08-28T17:07:23.168Z,35.72
2023-08-28T17:09:51.948Z,35.87
2023-08-28T17:12:20.277Z,36.00
2023-08-28T17:14:48.595Z,36.22
2023-08-28T17:17:16.924Z,36.42
2023-08-28T17:19:45.299Z,36.60
2023-08-28T17:22:13.675Z,36.61
2023-08-28T17:24:41.962Z,36.70
2023-08-28T17:27:10.262Z,36.85
2023-08-28T17:29:38.550Z,36.79
2023-08-28T17:32:07.146Z,36.91
2023-08-28T17:34:35.415Z,37.05
2023-08-28T17:37:03.987Z,37.29
2023-08-28T17:39:32.301Z,37.40
2023-08-28T17:42:00.679Z,37.68
2023-08-28T17:44:29.147Z,37.88
2023-08-28T17:46:57.560Z,38.05
2023-08-28T17:49:25.987Z,38.24
2023-08-28T17:51:54.586Z,38.51
2023-08-28T17:54:23.205Z,38.51
2023-08-28T17:56:51.541Z,38.72
2023-08-28T17:59:19.833Z,38.99
2023-08-28T18:01:48.209Z,39.22
2023-08-28T18:04:16.732Z,39.41
2023-08-28T18:06:46.712Z,39.70
2023-08-28T18:09:15.033Z,39.88
2023-08-28T18:11:47.276Z,40.09
2023-08-28T18:14:15.990Z,40.41
2023-08-28T18:16:47.411Z,40.51
2023-08-28T18:19:16.927Z,40.74
2023-08-28T18:21:45.289Z,40.89
2023-08-28T18:24:13.649Z,41.15
2023-08-28T18:26:42.264Z,41.44
2023-08-28T18:29:10.869Z,41.57
2023-08-28T18:31:39.434Z,41.63
2023-08-28T18:34:07.883Z,41.78
2023-08-28T18:36:36.815Z,41.75
2023-08-28T18:39:06.445Z,41.84
2023-08-28T18:41:36.630Z,42.02
2023-08-28T18:44:06.601Z,41.87
2023-08-28T18:46:36.735Z,42.06
2023-08-28T18:49:05.531Z,41.76
2023-08-28T18:51:34.179Z,41.85
2023-08-28T18:54:02.591Z,41.49
2023-08-28T18:56:31.108Z,41.35
2023-08-28T18:58:59.619Z,41.37
2023-08-28T19:01:30.051Z,41.24
2023-08-28T19:03:58.526Z,41.03
2023-08-28T19:06:26.938Z,41.13
2023-08-28T19:08:56.119Z,41.40
2023-08-28T19:11:24.617Z,41.09
2023-08-28T19:13:53.255Z,41.31
2023-08-28T19:16:21.822Z,41.30
2023-08-28T19:18:50.457Z,40.98
2023-08-28T19:21:18.900Z,40.74
2023-08-28T19:23:48.145Z,40.70
2023-08-28T19:26:16.576Z,40.83
2023-08-28T19:28:45.049Z,40.57
2023-08-28T19:31:13.564Z,40.80
2023-08-28T19:33:42.426Z,40.50
2023-08-28T19:36:10.772Z,40.49
2023-08-28T19:38:39.077Z,40.49
2023-08-28T19:41:07.896Z,40.53
2023-08-28T19:43:36.382Z,40.73
2023-08-28T19:46:04.795Z,40.58
2023-08-28T19:48:33.526Z,40.67
2023-08-28T19:51:04.854Z,40.55
2023-08-28T19:53:33.563Z,40.43
2023-08-28T19:56:12.841Z,40.45
2023-08-28T19:58:41.471Z,40.39
2023-08-28T20:01:10.073Z,40.32
2023-08-28T20:03:38.469Z,40.17
2023-08-28T20:06:07.201Z,40.38
2023-08-28T20:08:35.882Z,40.25
2023-08-28T20:11:06.478Z,40.53
2023-08-28T20:13:34.988Z,40.52
2023-08-28T20:16:03.669Z,40.50
2023-08-28T20:18:33.664Z,40.54
2023-08-28T20:21:02.037Z,40.36
2023-08-28T20:23:30.500Z,40.09
2023-08-28T20:26:01.489Z,39.91
2023-08-28T20:28:29.912Z,40.00
2023-08-28T20:30:58.170Z,40.13
2023-08-28T20:33:26.534Z,40.35
2023-08-28T20:35:54.933Z,40.62
2023-08-28T20:38:25.711Z,40.87
2023-08-28T20:40:54.069Z,40.88
2023-08-28T20:43:23.489Z,40.95
2023-08-28T20:46:04.599Z,41.16
2023-08-28T20:48:37.038Z,41.29
2023-08-28T20:51:13.401Z,41.41
2023-08-28T20:53:54.278Z,41.42
2023-08-28T20:56:30.153Z,41.50
2023-08-28T20:58:58.801Z,41.40
2023-08-28T21:01:27.639Z,41.37
2023-08-28T21:03:56.233Z,41.57
2023-08-28T21:06:24.800Z,41.37
2023-08-28T21:08:55.412Z,41.23
2023-08-28T21:11:23.870Z,41.12
2023-08-28T21:13:52.222Z,41.13
2023-08-28T21:16:32.635Z,41.10
2023-08-28T21:19:08.104Z,40.83
2023-08-28T21:21:36.764Z,40.63
2023-08-28T21:24:05.706Z,40.44
2023-08-28T21:26:34.027Z,40.59
2023-08-28T21:29:02.326Z,40.62
2023-08-28T21:31:30.680Z,40.64
2023-08-28T21:33:59.001Z,40.65
2023-08-28T21:36:27.381Z,40.79
2023-08-28T21:38:55.695Z,40.96
2023-08-28T21:41:24.077Z,40.97
2023-08-28T21:43:52.416Z,41.32
2023-08-28T21:46:20.736Z,41.59
2023-08-28T21:48:49.040Z,41.79
2023-08-28T21:51:35.731Z,42.19
2023-08-28T21:54:22.589Z,42.49
2023-08-28T21:57:09.266Z,43.44
2023-08-28T21:59:56.546Z,44.45
2023-08-28T22:02:43.242Z,45.01
2023-08-28T22:05:30.169Z,45.79
2023-08-28T22:07:58.394Z,45.66
2023-08-28T22:10:56.199Z,46.12
2023-08-28T22:13:35.193Z,45.94
2023-08-28T22:16:04.004Z,46.94
2023-08-28T22:18:32.567Z,46.82
2023-08-28T22:21:01.691Z,47.74
2023-08-28T22:23:30.208Z,47.54
2023-08-28T22:25:58.733Z,48.25
2023-08-28T22:28:27.005Z,49.06
2023-08-28T22:30:55.447Z,47.93
2023-08-28T22:33:23.888Z,47.98
2023-08-28T22:35:52.237Z,48.33
2023-08-28T22:38:20.842Z,48.97
2023-08-28T22:40:49.229Z,48.24
2023-08-28T22:43:17.658Z,48.13
2023-08-28T22:45:46.143Z,47.82
2023-08-28T22:48:14.506Z,48.16
2023-08-28T22:50:42.825Z,48.23
2023-08-28T22:53:11.225Z,48.07
2023-08-28T22:55:39.581Z,47.83
2023-08-28T22:58:08.082Z,48.00
2023-08-28T23:00:36.655Z,48.07
2023-08-28T23:03:05.291Z,48.17
2023-08-28T23:05:33.727Z,48.50
2023-08-28T23:08:02.139Z,48.44
2023-08-28T23:10:30.460Z,48.22
2023-08-28T23:12:58.755Z,48.49
2023-08-28T23:15:27.025Z,48.58
2023-08-28T23:17:55.414Z,48.64
2023-08-28T23:20:24.147Z,48.56
2023-08-28T23:22:52.510Z,48.58
2023-08-28T23:25:20.784Z,48.61
2023-08-28T23:27:49.353Z,48.86
2023-08-28T23:30:17.745Z,48.59
2023-08-28T23:32:46.120Z,48.59
2023-08-28T23:35:14.520Z,48.67
2023-08-28T23:37:42.813Z,48.67
2023-08-28T23:40:15.158Z,48.72
2023-08-28T23:42:43.626Z,48.78
2023-08-28T23:45:12.197Z,48.90
2023-08-28T23:47:40.475Z,48.73
2023-08-28T23:50:09.101Z,48.65
2023-08-28T23:52:37.425Z,48.88
2023-08-28T23:55:06.632Z,49.12
2023-08-28T23:57:35.073Z,49.70
